createdAt,value
2019-03-25T00:01:03.618Z,53
2019-03-25T00:06:06.047Z,55
2019-03-25T00:11:08.528Z,52
2019-03-25T00:16:11.163Z,55
2019-03-25T00:21:13.456Z,71
2019-03-25T00:26:16.182Z,54
2019-03-25T00:31:18.341Z,39
2019-03-25T00:36:20.833Z,36
2019-03-25T00:41:23.279Z,46
2019-03-25T00:46:25.805Z,43
2019-03-25T00:51:28.183Z,41
2019-03-25T00:56:30.926Z,36
2019-03-25T01:01:33.099Z,30
2019-03-25T01:06:35.546Z,34
2019-03-25T01:11:48.570Z,43
2019-03-25T01:16:40.596Z,38
2019-03-25T01:21:42.928Z,48
2019-03-25T01:26:45.722Z,43
2019-03-25T01:31:47.903Z,41
2019-03-25T01:36:50.375Z,37
2019-03-25T01:41:52.744Z,39
2019-03-25T01:46:55.338Z,37
2019-03-25T01:51:57.662Z,41
2019-03-25T01:57:00.478Z,39
2019-03-25T02:02:02.660Z,38
2019-03-25T02:07:05.328Z,46
2019-03-25T02:12:07.486Z,38
2019-03-25T02:17:10.023Z,38
2019-03-25T02:22:12.463Z,34
2019-03-25T02:27:15.293Z,37
2019-03-25T02:32:17.350Z,38
2019-03-25T02:37:19.799Z,36
2019-03-25T02:42:22.243Z,36
2019-03-25T02:47:24.710Z,29
2019-03-25T02:52:27.153Z,35
2019-03-25T02:57:29.641Z,34
2019-03-25T03:02:32.075Z,29
2019-03-25T03:07:34.525Z,29
2019-03-25T03:12:36.995Z,35
2019-03-25T03:17:39.549Z,30
2019-03-25T03:22:41.992Z,36
2019-03-25T03:27:44.690Z,30
2019-03-25T03:32:46.861Z,34
2019-03-25T03:37:49.299Z,32
2019-03-25T03:42:51.773Z,30
2019-03-25T03:47:54.251Z,26
2019-03-25T03:52:56.801Z,25
2019-03-25T03:57:59.481Z,24
2019-03-25T04:03:01.746Z,23
2019-03-25T04:08:04.113Z,25
2019-03-25T04:13:06.562Z,22
2019-03-25T04:18:09.169Z,26
2019-03-25T04:23:11.507Z,25
2019-03-25T04:28:14.835Z,19
2019-03-25T04:33:16.425Z,21
2019-03-25T04:43:21.413Z,21
2019-03-25T04:48:23.898Z,21
2019-03-25T04:53:26.307Z,18
2019-03-25T04:58:29.080Z,19
2019-03-25T05:03:31.281Z,22
2019-03-25T05:08:33.702Z,21
2019-03-25T05:13:36.188Z,13
2019-03-25T05:18:38.652Z,22
2019-03-25T05:23:41.183Z,14
2019-03-25T05:28:43.853Z,15
2019-03-25T05:33:46.004Z,14
2019-03-25T05:38:48.477Z,13
2019-03-25T05:43:51.047Z,13
2019-03-25T05:48:53.436Z,10
2019-03-25T05:53:55.861Z,19
2019-03-25T06:04:00.794Z,11
2019-03-25T06:09:03.270Z,7
2019-03-25T06:19:08.268Z,13
2019-03-25T06:24:10.668Z,11
2019-03-25T06:29:13.097Z,10
2019-03-25T06:34:15.925Z,7
2019-03-25T06:39:18.018Z,14
2019-03-25T06:44:20.481Z,8
2019-03-25T06:49:23.039Z,7
2019-03-25T06:54:25.413Z,9
2019-03-25T06:59:27.871Z,11
2019-03-25T07:04:30.319Z,9
2019-03-25T07:09:32.789Z,7
2019-03-25T07:14:35.225Z,6
2019-03-25T07:19:37.783Z,8
2019-03-25T07:24:40.154Z,9
2019-03-25T07:29:42.697Z,8
2019-03-25T07:34:45.445Z,8
2019-03-25T07:39:47.551Z,5
2019-03-25T07:44:50.018Z,12
2019-03-25T07:49:52.571Z,12
2019-03-25T07:54:54.913Z,8
2019-03-25T07:59:57.386Z,9
2019-03-25T08:05:00.134Z,6
2019-03-25T08:10:02.340Z,9
2019-03-25T08:15:04.756Z,7
2019-03-25T08:20:07.281Z,8
2019-03-25T08:25:09.648Z,10
2019-03-25T08:30:12.144Z,14
2019-03-25T08:35:15.169Z,10
2019-03-25T08:40:17.043Z,15
2019-03-25T08:45:19.530Z,13
2019-03-25T08:50:22.115Z,12
2019-03-25T08:55:24.462Z,15
2019-03-25T09:00:26.892Z,14
2019-03-25T09:05:29.720Z,16
2019-03-25T09:10:31.821Z,12
2019-03-25T09:15:34.372Z,10
2019-03-25T09:20:36.833Z,19
2019-03-25T09:25:39.242Z,12
2019-03-25T09:30:41.743Z,12
2019-03-25T09:35:44.549Z,11
2019-03-25T09:40:46.620Z,10
2019-03-25T09:45:49.097Z,10
2019-03-25T09:50:51.578Z,8
2019-03-25T09:55:54.011Z,6
2019-03-25T10:00:56.451Z,7
2019-03-25T10:11:01.611Z,7
2019-03-25T10:16:03.793Z,5
2019-03-25T10:21:06.270Z,6
2019-03-25T10:26:08.810Z,7
2019-03-25T10:31:11.201Z,7
2019-03-25T10:36:13.805Z,5
2019-03-25T10:41:16.382Z,7
2019-03-25T10:46:18.577Z,7
2019-03-25T10:51:21.032Z,6
2019-03-25T10:56:23.524Z,7
2019-03-25T11:01:25.928Z,5
2019-03-25T11:06:28.403Z,4
2019-03-25T11:11:31.381Z,4
2019-03-25T11:21:35.822Z,3
2019-03-25T11:26:38.312Z,4
2019-03-25T11:31:40.743Z,4
2019-03-25T11:36:43.147Z,4
2019-03-25T11:41:45.951Z,3
2019-03-25T11:46:48.033Z,5
2019-03-25T11:51:50.538Z,4
2019-03-25T11:56:52.966Z,6
2019-03-25T12:01:55.404Z,4
2019-03-25T12:06:57.893Z,2
2019-03-25T12:12:00.623Z,6
2019-03-25T12:17:02.924Z,6
2019-03-25T12:22:05.248Z,3
2019-03-25T12:27:07.694Z,3
2019-03-25T12:32:15.177Z,2
2019-03-25T12:37:12.629Z,3
2019-03-25T12:42:15.469Z,5
2019-03-25T12:47:17.564Z,4
2019-03-25T12:52:19.988Z,4
2019-03-25T12:57:22.464Z,3
2019-03-25T13:02:24.899Z,3
2019-03-25T13:07:27.384Z,3
2019-03-25T13:17:32.405Z,3
2019-03-25T13:27:37.216Z,3
2019-03-25T13:32:39.692Z,4
2019-03-25T13:37:42.177Z,2
2019-03-25T13:42:44.585Z,2
2019-03-25T13:47:47.031Z,4
2019-03-25T13:52:49.478Z,4
2019-03-25T13:57:51.953Z,4
2019-03-25T14:02:54.422Z,3
2019-03-25T14:07:56.842Z,6
2019-03-25T14:12:59.297Z,4
2019-03-25T14:18:01.844Z,1
2019-03-25T14:23:04.202Z,1
2019-03-25T14:28:06.725Z,1
2019-03-25T14:33:09.550Z,1
2019-03-25T14:38:11.630Z,1
2019-03-25T14:43:14.075Z,1
2019-03-25T14:48:17.028Z,2
2019-03-25T14:53:19.022Z,1
2019-03-25T14:58:21.543Z,0
2019-03-25T15:03:24.224Z,2
2019-03-25T15:08:26.649Z,1
2019-03-25T15:13:29.024Z,3
2019-03-25T15:18:31.345Z,2
2019-03-25T15:23:33.797Z,2
2019-03-25T15:28:36.435Z,2
2019-03-25T15:33:39.047Z,3
2019-03-25T15:38:46.187Z,3
2019-03-25T15:43:43.605Z,3
2019-03-25T15:48:46.157Z,3
2019-03-25T15:53:48.587Z,3
2019-03-25T15:58:51.003Z,2
2019-03-25T16:03:53.833Z,1
2019-03-25T16:08:55.939Z,1
2019-03-25T16:19:00.863Z,2
2019-03-25T16:24:03.315Z,2
2019-03-25T16:29:05.841Z,1
2019-03-25T16:34:08.744Z,3
2019-03-25T16:39:10.887Z,3
2019-03-25T16:44:13.154Z,5
2019-03-25T16:49:15.659Z,2
2019-03-25T16:54:18.163Z,3
2019-03-25T16:59:20.610Z,2
2019-03-25T17:04:23.466Z,3
2019-03-25T17:09:25.531Z,4
2019-03-25T17:14:27.943Z,5
2019-03-25T17:19:30.402Z,7
2019-03-25T17:24:32.905Z,9
2019-03-25T17:29:35.324Z,11
2019-03-25T17:34:38.128Z,9
2019-03-25T17:39:40.284Z,8
2019-03-25T17:44:42.749Z,8
2019-03-25T17:49:45.290Z,5
2019-03-25T17:54:47.718Z,5
2019-03-25T17:59:50.132Z,5
2019-03-25T18:04:52.898Z,5
2019-03-25T18:09:55.075Z,5
2019-03-25T18:14:57.531Z,4
2019-03-25T18:20:00.244Z,5
2019-03-25T18:25:02.610Z,5
2019-03-25T18:30:04.967Z,6
2019-03-25T18:35:07.425Z,6
2019-03-25T18:40:09.829Z,6
2019-03-25T18:45:12.348Z,8
2019-03-25T18:50:14.745Z,7
2019-03-25T18:55:17.374Z,7
2019-03-25T19:00:19.682Z,7
2019-03-25T19:05:22.152Z,8
2019-03-25T19:10:24.581Z,9
2019-03-25T19:15:27.044Z,9
2019-03-25T19:20:29.543Z,8
2019-03-25T19:25:32.115Z,11
2019-03-25T19:30:34.462Z,10
2019-03-25T19:35:37.023Z,9
2019-03-25T19:40:39.384Z,9
2019-03-25T19:45:41.850Z,8
2019-03-25T19:50:44.282Z,10
2019-03-25T19:55:46.786Z,11
2019-03-25T20:00:49.227Z,11
2019-03-25T20:05:52.101Z,13
2019-03-25T20:10:54.209Z,16
2019-03-25T20:15:56.593Z,16
2019-03-25T20:20:59.115Z,15
2019-03-25T20:26:01.619Z,22
2019-03-25T20:31:04.049Z,22
2019-03-25T20:36:06.777Z,23
2019-03-25T20:41:08.907Z,22
2019-03-25T20:46:11.393Z,22
2019-03-25T20:51:13.903Z,25
2019-03-25T20:56:16.319Z,25
2019-03-25T21:01:18.979Z,31
2019-03-25T21:06:21.551Z,27
2019-03-25T21:11:23.642Z,30
2019-03-25T21:16:26.152Z,37
2019-03-25T21:21:28.606Z,46
2019-03-25T21:26:31.045Z,45
2019-03-25T21:31:33.544Z,38
2019-03-25T21:36:36.046Z,38
2019-03-25T21:41:38.391Z,35
2019-03-25T21:46:40.883Z,33
2019-03-25T21:51:43.321Z,32
2019-03-25T21:56:45.794Z,28
2019-03-25T22:01:48.258Z,33
2019-03-25T22:06:50.738Z,34
2019-03-25T22:11:53.259Z,43
2019-03-25T22:16:55.713Z,46
2019-03-25T22:21:58.123Z,39
2019-03-25T22:27:00.573Z,45
2019-03-25T22:32:03.020Z,52
2019-03-25T22:37:05.919Z,50
2019-03-25T22:42:07.953Z,43
2019-03-25T22:47:10.557Z,41
2019-03-25T22:57:15.349Z,36
2019-03-25T23:02:17.813Z,35
2019-03-25T23:07:20.571Z,37
2019-03-25T23:17:25.266Z,36
2019-03-25T23:22:27.775Z,34
2019-03-25T23:27:30.144Z,36
2019-03-25T23:32:32.617Z,33
2019-03-25T23:37:35.358Z,27
2019-03-25T23:42:37.576Z,34
2019-03-25T23:47:39.993Z,29
2019-03-25T23:52:42.447Z,32
2019-03-25T23:57:44.906Z,35
